createdAt,value
2022-09-10T00:02:25.970Z,79.55
2022-09-10T00:05:29.499Z,78.49
2022-09-10T00:08:35.119Z,78.18
2022-09-10T00:11:40.827Z,78.66
2022-09-10T00:14:43.613Z,78.33
2022-09-10T00:17:48.701Z,78.21
2022-09-10T00:20:52.687Z,77.48
2022-09-10T00:23:55.718Z,77.00
2022-09-10T00:26:59.753Z,77.32
2022-09-10T00:30:03.848Z,77.91
2022-09-10T00:33:07.913Z,76.90
2022-09-10T00:36:18.259Z,76.65
2022-09-10T00:39:20.973Z,75.71
2022-09-10T00:42:30.769Z,76.62
2022-09-10T00:45:37.500Z,76.87
2022-09-10T00:48:43.116Z,77.31
2022-09-10T00:51:46.026Z,77.54
2022-09-10T00:54:49.110Z,77.56
2022-09-10T00:57:54.968Z,78.36
2022-09-10T01:01:01.560Z,79.05
2022-09-10T01:04:05.425Z,79.81
2022-09-10T01:07:09.874Z,79.44
2022-09-10T01:10:13.901Z,78.55
2022-09-10T01:13:19.608Z,79.01
2022-09-10T01:16:28.225Z,79.47
2022-09-10T01:19:50.166Z,78.78
2022-09-10T01:22:56.994Z,78.56
2022-09-10T01:26:21.086Z,78.94
2022-09-10T01:29:31.601Z,78.81
2022-09-10T01:32:36.098Z,79.34
2022-09-10T01:35:46.936Z,80.13
2022-09-10T01:38:52.286Z,82.21
2022-09-10T01:41:55.716Z,80.36
2022-09-10T01:45:02.133Z,81.11
2022-09-10T01:48:28.441Z,80.73
2022-09-10T01:51:49.914Z,80.21
2022-09-10T01:54:58.003Z,82.09
2022-09-10T01:58:19.621Z,80.32
2022-09-10T02:01:37.355Z,82.13
2022-09-10T02:04:43.217Z,83.52
2022-09-10T02:07:46.360Z,82.76
2022-09-10T02:10:52.282Z,83.86
2022-09-10T02:13:58.470Z,83.19
2022-09-10T02:17:09.090Z,82.50
2022-09-10T02:20:15.016Z,82.95
2022-09-10T02:23:29.031Z,83.14
2022-09-10T02:26:37.316Z,82.73
2022-09-10T02:29:40.794Z,82.72
2022-09-10T02:32:46.217Z,82.03
2022-09-10T02:35:49.957Z,81.94
2022-09-10T02:38:53.752Z,81.37
2022-09-10T02:41:58.801Z,80.87
2022-09-10T02:45:01.603Z,81.38
2022-09-10T02:48:04.566Z,81.31
2022-09-10T02:51:08.054Z,80.71
2022-09-10T02:54:12.045Z,81.06
2022-09-10T02:57:14.698Z,80.36
2022-09-10T03:00:21.385Z,79.96
2022-09-10T03:03:24.078Z,79.68
2022-09-10T03:06:27.391Z,79.67
2022-09-10T03:09:31.343Z,79.67
2022-09-10T03:12:34.159Z,79.54
2022-09-10T03:15:36.768Z,79.76
2022-09-10T03:18:42.573Z,79.75
2022-09-10T03:21:47.663Z,80.19
2022-09-10T03:24:50.776Z,80.61
2022-09-10T03:27:53.369Z,80.10
2022-09-10T03:30:57.083Z,80.59
2022-09-10T03:33:59.865Z,80.25
2022-09-10T03:37:06.039Z,80.03
2022-09-10T03:40:10.901Z,80.18
2022-09-10T03:43:14.137Z,80.10
2022-09-10T03:46:16.899Z,80.15
2022-09-10T03:49:20.283Z,79.91
2022-09-10T03:52:22.954Z,79.14
2022-09-10T03:55:26.597Z,79.78
2022-09-10T03:58:30.407Z,79.23
2022-09-10T04:01:33.622Z,80.07
2022-09-10T04:04:38.735Z,81.12
2022-09-10T04:07:41.692Z,80.95
2022-09-10T04:10:48.284Z,81.61
2022-09-10T04:13:54.237Z,81.27
2022-09-10T04:16:59.079Z,82.17
2022-09-10T04:20:03.627Z,81.85
2022-09-10T04:23:07.441Z,81.31
2022-09-10T04:26:14.047Z,81.08
2022-09-10T04:29:19.267Z,81.44
2022-09-10T04:32:23.843Z,81.54
2022-09-10T04:35:26.913Z,81.90
2022-09-10T04:38:32.898Z,82.00
2022-09-10T04:41:36.690Z,81.29
2022-09-10T04:44:44.211Z,81.15
2022-09-10T04:47:48.036Z,81.22
2022-09-10T04:51:14.693Z,80.45
2022-09-10T04:54:16.261Z,80.59
2022-09-10T04:57:21.131Z,79.87
2022-09-10T05:00:24.088Z,79.56
2022-09-10T05:03:26.895Z,79.95
2022-09-10T05:06:33.790Z,79.20
2022-09-10T05:10:00.523Z,80.86
2022-09-10T05:13:04.735Z,79.86
2022-09-10T05:16:08.666Z,79.17
2022-09-10T05:19:18.933Z,79.29
2022-09-10T05:26:10.337Z,79.25
2022-09-10T05:29:14.363Z,79.71
2022-09-10T05:39:37.082Z,80.40
2022-09-10T05:42:40.013Z,80.37
2022-09-10T05:45:42.722Z,79.02
2022-09-10T05:48:47.281Z,79.35
2022-09-10T05:51:50.533Z,79.04
2022-09-10T06:02:57.582Z,79.73
2022-09-10T06:13:19.137Z,77.43
2022-09-10T06:16:22.419Z,77.59
2022-09-10T06:27:35.695Z,77.30
2022-09-10T06:30:42.866Z,77.35
2022-09-10T06:33:49.294Z,76.96
2022-09-10T06:37:03.415Z,76.86
2022-09-10T06:44:06.573Z,75.40
2022-09-10T06:47:46.238Z,74.34
2022-09-10T06:54:19.150Z,74.58
2022-09-10T06:57:22.744Z,74.06
2022-09-10T07:20:05.140Z,72.68
2022-09-10T08:05:29.528Z,74.32
2022-09-10T08:12:34.058Z,72.12
2022-09-10T08:23:25.715Z,69.94
2022-09-10T08:38:26.095Z,64.96
2022-09-10T08:49:35.303Z,60.00
2022-09-10T08:53:07.062Z,60.38
2022-09-10T08:56:43.081Z,59.49
2022-09-10T09:03:47.212Z,58.33
2022-09-10T09:06:58.084Z,57.58
2022-09-10T09:14:05.479Z,54.75
2022-09-10T09:37:03.462Z,52.48
2022-09-10T09:47:56.395Z,49.16
2022-09-10T10:06:51.580Z,46.81
2022-09-10T10:10:22.830Z,46.69
2022-09-10T10:13:32.913Z,45.50
2022-09-10T10:16:49.378Z,45.84
2022-09-10T10:28:21.798Z,44.94
2022-09-10T10:32:09.332Z,45.98
2022-09-10T10:39:51.641Z,45.49
2022-09-10T10:47:29.002Z,45.66
2022-09-10T11:09:59.167Z,46.06
2022-09-10T11:13:27.868Z,44.72
2022-09-10T11:16:33.578Z,44.11
2022-09-10T11:23:12.997Z,44.46
2022-09-10T11:26:33.167Z,44.68
2022-09-10T11:29:43.576Z,43.15
2022-09-10T11:32:52.796Z,43.49
2022-09-10T11:36:00.125Z,42.18
2022-09-10T11:39:24.485Z,43.40
2022-09-10T11:42:32.633Z,42.05
2022-09-10T11:45:49.125Z,42.38
2022-09-10T11:49:11.289Z,40.95
2022-09-10T11:52:14.549Z,40.33
2022-09-10T11:55:51.624Z,39.26
2022-09-10T11:59:05.073Z,39.50
2022-09-10T12:02:20.124Z,39.24
2022-09-10T12:05:32.128Z,38.43
2022-09-10T12:09:08.449Z,38.90
2022-09-10T12:12:31.622Z,38.96
2022-09-10T12:15:34.680Z,38.28
2022-09-10T12:18:42.843Z,37.73
2022-09-10T12:21:59.140Z,38.09
2022-09-10T12:25:11.035Z,38.53
2022-09-10T12:28:36.723Z,37.65
2022-09-10T12:32:05.983Z,38.60
2022-09-10T12:35:27.635Z,37.47
2022-09-10T12:38:49.325Z,37.14
2022-09-10T12:42:24.094Z,39.98
2022-09-10T12:45:48.735Z,35.78
2022-09-10T12:48:59.372Z,34.63
2022-09-10T12:52:20.638Z,37.43
2022-09-10T12:55:40.908Z,36.75
2022-09-10T12:59:43.952Z,38.44
2022-09-10T13:06:38.271Z,37.56
2022-09-10T13:09:41.044Z,35.42
2022-09-10T13:12:44.347Z,34.33
2022-09-10T13:15:50.163Z,32.77
2022-09-10T13:19:22.771Z,31.89
2022-09-10T13:22:53.043Z,32.23
2022-09-10T13:25:55.709Z,33.14
2022-09-10T13:29:01.435Z,33.94
2022-09-10T13:32:23.861Z,33.24
2022-09-10T13:39:04.978Z,30.91
2022-09-10T13:42:36.019Z,31.99
2022-09-10T13:46:05.762Z,29.59
2022-09-10T13:49:27.601Z,28.44
2022-09-10T13:52:35.721Z,29.84
2022-09-10T13:55:46.207Z,28.06
2022-09-10T13:59:03.882Z,27.31
2022-09-10T14:02:16.300Z,26.75
2022-09-10T14:05:23.393Z,27.20
2022-09-10T14:08:34.847Z,27.32
2022-09-10T14:11:38.250Z,25.71
2022-09-10T14:14:48.927Z,25.91
2022-09-10T14:17:53.487Z,27.34
2022-09-10T14:20:59.549Z,30.02
2022-09-10T14:24:02.551Z,28.62
2022-09-10T14:27:06.375Z,29.05
2022-09-10T14:30:18.778Z,31.25
2022-09-10T14:33:34.947Z,26.81
2022-09-10T14:36:50.156Z,24.82
2022-09-10T14:40:17.566Z,27.34
2022-09-10T14:43:36.601Z,30.09
2022-09-10T14:47:21.420Z,27.74
2022-09-10T14:50:28.873Z,27.98
2022-09-10T14:53:32.077Z,29.38
2022-09-10T14:56:43.010Z,28.86
2022-09-10T14:59:49.437Z,27.52
2022-09-10T15:03:02.614Z,26.44
2022-09-10T15:06:09.636Z,26.69
2022-09-10T15:09:13.074Z,28.06
2022-09-10T15:12:25.597Z,27.90
2022-09-10T15:15:32.907Z,28.46
2022-09-10T15:18:39.896Z,29.66
2022-09-10T15:21:46.153Z,31.59
2022-09-10T15:25:14.593Z,34.76
2022-09-10T15:28:34.251Z,35.82
2022-09-10T15:31:43.015Z,34.89
2022-09-10T15:34:46.060Z,34.54
2022-09-10T15:37:55.446Z,31.97
2022-09-10T15:41:12.897Z,30.61
2022-09-10T15:44:24.368Z,31.21
2022-09-10T15:47:28.121Z,33.09
2022-09-10T15:50:31.988Z,32.47
2022-09-10T15:53:35.039Z,33.23
2022-09-10T15:56:39.490Z,34.21
2022-09-10T15:59:42.002Z,34.58
2022-09-10T16:02:50.058Z,35.46
2022-09-10T16:05:54.937Z,36.36
2022-09-10T16:09:10.529Z,35.71
2022-09-10T16:12:17.566Z,35.53
2022-09-10T16:15:23.584Z,35.45
2022-09-10T16:26:33.671Z,36.32
2022-09-10T16:40:02.544Z,38.28
2022-09-10T16:47:24.350Z,36.94
2022-09-10T16:58:11.362Z,41.93
2022-09-10T17:04:57.069Z,44.43
2022-09-10T17:20:28.560Z,48.75
2022-09-10T17:23:41.984Z,49.34
2022-09-10T17:27:04.359Z,49.76
2022-09-10T17:30:13.232Z,50.54
2022-09-10T17:33:25.551Z,50.44
2022-09-10T17:45:07.709Z,51.35
2022-09-10T17:48:16.113Z,51.78
2022-09-10T17:51:42.377Z,52.16
2022-09-10T17:54:58.356Z,51.66
2022-09-10T17:58:16.170Z,51.87
2022-09-10T18:01:23.309Z,52.92
2022-09-10T18:04:28.059Z,53.32
2022-09-10T18:07:31.470Z,53.31
2022-09-10T18:10:34.947Z,53.85
2022-09-10T18:13:41.851Z,54.41
2022-09-10T18:16:47.258Z,54.85
2022-09-10T18:19:50.539Z,56.20
2022-09-10T18:22:53.548Z,56.68
2022-09-10T18:26:00.731Z,57.17
2022-09-10T18:29:14.007Z,57.45
2022-09-10T18:32:18.587Z,58.03
2022-09-10T18:35:21.869Z,57.80
2022-09-10T18:38:26.195Z,58.62
2022-09-10T18:41:31.398Z,58.35
2022-09-10T18:44:35.536Z,58.84
2022-09-10T18:47:44.983Z,59.80
2022-09-10T18:50:48.385Z,59.34
2022-09-10T18:53:55.185Z,59.43
2022-09-10T18:56:58.338Z,60.64
2022-09-10T19:00:02.093Z,60.62
2022-09-10T19:03:05.067Z,61.27
2022-09-10T19:06:12.286Z,61.69
2022-09-10T19:09:16.453Z,62.10
2022-09-10T19:12:20.098Z,62.64
2022-09-10T19:15:22.903Z,63.01
2022-09-10T19:18:30.007Z,63.58
2022-09-10T19:21:33.223Z,64.39
2022-09-10T19:24:54.948Z,63.94
2022-09-10T19:28:03.727Z,63.55
2022-09-10T19:31:07.761Z,64.45
2022-09-10T19:34:31.665Z,64.89
2022-09-10T19:37:35.657Z,65.10
2022-09-10T19:40:39.197Z,65.32
2022-09-10T19:43:42.714Z,66.13
2022-09-10T19:46:45.797Z,66.88
2022-09-10T19:49:52.390Z,67.03
2022-09-10T19:52:55.036Z,67.27
2022-09-10T19:56:08.162Z,67.62
2022-09-10T19:59:26.480Z,68.60
2022-09-10T20:02:36.994Z,67.52
2022-09-10T20:09:42.564Z,68.57
2022-09-10T20:12:46.553Z,68.52
2022-09-10T20:15:49.769Z,68.50
2022-09-10T20:18:52.752Z,68.68
2022-09-10T20:21:55.390Z,68.68
2022-09-10T20:25:02.863Z,68.73
2022-09-10T20:28:05.714Z,68.69
2022-09-10T20:34:45.085Z,69.33
2022-09-10T20:37:52.729Z,70.41
2022-09-10T20:41:07.978Z,70.30
2022-09-10T20:44:13.352Z,70.45
2022-09-10T20:47:15.907Z,70.54
2022-09-10T20:50:18.761Z,70.66
2022-09-10T20:53:22.379Z,70.85
2022-09-10T20:57:02.299Z,71.37
2022-09-10T21:00:06.875Z,71.35
2022-09-10T21:03:09.936Z,72.14
2022-09-10T21:06:23.588Z,73.00
2022-09-10T21:09:26.311Z,72.72
2022-09-10T21:12:28.817Z,72.79
2022-09-10T21:15:32.415Z,72.82
2022-09-10T21:18:35.301Z,73.34
2022-09-10T21:21:39.660Z,73.47
2022-09-10T21:24:45.283Z,74.21
2022-09-10T21:27:50.903Z,73.76
2022-09-10T21:30:53.724Z,72.93
2022-09-10T21:34:01.977Z,73.55
2022-09-10T21:37:05.417Z,73.14
2022-09-10T21:40:10.087Z,73.39
2022-09-10T21:43:16.749Z,73.63
2022-09-10T21:46:23.612Z,74.14
2022-09-10T21:49:29.812Z,74.62
2022-09-10T21:52:32.829Z,74.08
2022-09-10T21:55:35.593Z,74.32
2022-09-10T21:58:38.643Z,74.94
2022-09-10T22:01:43.897Z,74.64
2022-09-10T22:05:20.547Z,74.02
2022-09-10T22:08:25.169Z,74.56
2022-09-10T22:11:31.988Z,74.74
2022-09-10T22:14:37.698Z,74.67
2022-09-10T22:21:10.952Z,75.13
2022-09-10T22:27:41.285Z,75.22
2022-09-10T22:30:44.071Z,75.23
2022-09-10T22:33:50.090Z,75.93
2022-09-10T22:36:53.048Z,76.62
2022-09-10T22:40:11.602Z,76.48
2022-09-10T22:43:35.749Z,77.27
2022-09-10T22:47:13.563Z,76.50
2022-09-10T22:50:17.278Z,76.85
2022-09-10T22:53:35.720Z,77.22
2022-09-10T22:56:38.549Z,77.58
2022-09-10T22:59:41.666Z,77.85
2022-09-10T23:02:46.483Z,77.48
2022-09-10T23:05:49.927Z,77.67
2022-09-10T23:08:53.752Z,77.33
2022-09-10T23:11:56.991Z,77.43
2022-09-10T23:14:59.578Z,77.52
2022-09-10T23:18:02.566Z,77.28
2022-09-10T23:21:05.400Z,77.40
2022-09-10T23:24:11.241Z,77.65
2022-09-10T23:27:14.319Z,78.32
2022-09-10T23:30:17.442Z,78.49
2022-09-10T23:33:19.929Z,78.35
2022-09-10T23:36:23.018Z,78.47
2022-09-10T23:39:25.667Z,78.00
2022-09-10T23:42:29.089Z,77.93
2022-09-10T23:45:32.140Z,77.88
2022-09-10T23:48:35.519Z,78.24
2022-09-10T23:51:38.076Z,79.02
2022-09-10T23:54:41.082Z,79.57
2022-09-10T23:57:44.550Z,80.06
